Estación de San Ignacio

Ultimos registro cada 15 minutos 76
Estación Fecha / Hora Temperatura Humedad Lluvia Velocidad Dirección Radiación Presion
76 San Ignacio 07-05-2026 18:45 8,8 83 0 0 52 0 1042,9
75 San Ignacio 07-05-2026 18:30 8,9 83 0 0 52 0 1042,8
74 San Ignacio 07-05-2026 18:15 9,2 82 0 0 52 0 1042,9
73 San Ignacio 07-05-2026 18:00 9,3 81 0 0 52 0 1042,6
72 San Ignacio 07-05-2026 17:45 9,5 81 0 0 52 0 1042,5
71 San Ignacio 07-05-2026 17:30 9,8 80 0 0 52 5 1042,5
70 San Ignacio 07-05-2026 17:15 9,9 78 0 0 52 12 1042,9
69 San Ignacio 07-05-2026 17:00 10,2 78 0 0 52 19 1042,9
68 San Ignacio 07-05-2026 16:45 10,3 75 0 0 52 23 1043,1
67 San Ignacio 07-05-2026 16:30 10,5 73 0 0 52 19 1043,2
66 San Ignacio 07-05-2026 16:15 10,7 71 0 0 52 30 1043,1
65 San Ignacio 07-05-2026 16:00 10,8 69 0 0,4 52 39 1042,9
64 San Ignacio 07-05-2026 15:45 10,8 69 0 0,4 55 81 1043,2
63 San Ignacio 07-05-2026 15:30 10,9 69 0 0,9 57 65 1043,2
62 San Ignacio 07-05-2026 15:15 11,1 69 0 0,9 60 81 1043,2
61 San Ignacio 07-05-2026 15:00 11,3 69 0 1,8 61 114 1043,1
60 San Ignacio 07-05-2026 14:45 11,3 67 0 1,3 42 139 1043
59 San Ignacio 07-05-2026 14:30 11,4 65 0 0,9 45 163 1043,1
58 San Ignacio 07-05-2026 14:15 11,5 63 0 1,3 46 190 1043,2
57 San Ignacio 07-05-2026 14:00 11,6 67 0 1,3 5 229 1043,2
56 San Ignacio 07-05-2026 13:45 11,8 64 0 0,4 355 250 1042,9
55 San Ignacio 07-05-2026 13:30 11,8 65 0 0,9 71 243 1043,4
54 San Ignacio 07-05-2026 13:15 11,7 73 0 1,3 10 302 1043,7
53 San Ignacio 07-05-2026 13:00 11,4 70 0 0,9 32 264 1043,7
52 San Ignacio 07-05-2026 12:45 11,3 75 0 1,3 72 248 1043,5
51 San Ignacio 07-05-2026 12:30 11,2 76 0 0,4 28 162 1043,6
50 San Ignacio 07-05-2026 12:15 11,2 77 0 1,8 5 209 1043,7
49 San Ignacio 07-05-2026 12:00 10,9 76 0 2,2 46 216 1044
48 San Ignacio 07-05-2026 11:45 10,8 77 0 1,8 355 185 1044,2
47 San Ignacio 07-05-2026 11:30 10,6 80 0 0,4 342 236 1044,5
46 San Ignacio 07-05-2026 11:15 10,3 80 0 0 279 221 1044,2
45 San Ignacio 07-05-2026 11:00 10,1 83 0 0,9 12 218 1044,3
44 San Ignacio 07-05-2026 10:45 9,6 87 0 0,4 14 230 1044,5
43 San Ignacio 07-05-2026 10:30 8,9 88 0 0,4 15 176 1044,5
42 San Ignacio 07-05-2026 10:15 8,7 89 0 0,9 27 130 1044,4
41 San Ignacio 07-05-2026 10:00 8,3 90 0 0 27 135 1044,4
40 San Ignacio 07-05-2026 09:45 7,8 90 0 0 27 132 1044,3
39 San Ignacio 07-05-2026 09:30 7,6 90 0 0 27 158 1044,4
38 San Ignacio 07-05-2026 09:15 7,4 91 0 0 27 79 1043,9
37 San Ignacio 07-05-2026 09:00 7,1 91 0 0 28 54 1043,5
36 San Ignacio 07-05-2026 08:45 6,7 91 0 0 28 104 1043,5
35 San Ignacio 07-05-2026 08:30 6,3 91 0 0 31 56 1043,5
34 San Ignacio 07-05-2026 08:15 5,7 91 0 0 31 42 1043,2
33 San Ignacio 07-05-2026 08:00 5,3 91 0 0 31 14 1043,1
32 San Ignacio 07-05-2026 07:45 4,9 91 0 0 31 11 1042,7
31 San Ignacio 07-05-2026 07:30 4,8 91 0 0 31 0 1042,6
30 San Ignacio 07-05-2026 07:15 4,6 91 0 0 31 0 1042,6
29 San Ignacio 07-05-2026 07:00 4,3 91 0 0 31 0 1042,5
28 San Ignacio 07-05-2026 06:45 4,5 90 0 0 31 0 1042,4
27 San Ignacio 07-05-2026 06:30 4,9 91 0 0 31 0 1042,2
26 San Ignacio 07-05-2026 06:15 5,1 91 0 0 31 0 1042,2
25 San Ignacio 07-05-2026 06:00 5,1 91 0 0 31 0 1042,2
24 San Ignacio 07-05-2026 05:45 4,9 91 0 0 31 0 1042,1
23 San Ignacio 07-05-2026 05:30 5,1 91 0 0 31 0 1041,9
22 San Ignacio 07-05-2026 05:15 5,2 91 0 0 31 0 1041,6
21 San Ignacio 07-05-2026 05:00 5,1 91 0 0 31 0 1041,2
20 San Ignacio 07-05-2026 04:45 4,9 90 0 0 31 0 1041,2
19 San Ignacio 07-05-2026 04:30 5,3 90 0 0 31 0 1040,9
18 San Ignacio 07-05-2026 04:15 5,6 91 0 0 31 0 1041
17 San Ignacio 07-05-2026 04:00 5,5 91 0 0 31 0 1040,8
16 San Ignacio 07-05-2026 03:45 5,1 91 0 0 31 0 1041
15 San Ignacio 07-05-2026 03:30 4,9 90 0 0 31 0 1041
14 San Ignacio 07-05-2026 03:15 4,7 90 0 0 31 0 1040,8
13 San Ignacio 07-05-2026 03:00 4,5 90 0 0 31 0 1040,8
12 San Ignacio 07-05-2026 02:45 4,7 89 0 0 31 0 1040,6
11 San Ignacio 07-05-2026 02:30 4,8 89 0 0 31 0 1040,5
10 San Ignacio 07-05-2026 02:15 4,8 88 0 0 31 0 1040,3
9 San Ignacio 07-05-2026 02:00 5,1 88 0 0 31 0 1040,2
8 San Ignacio 07-05-2026 01:45 5,5 88 0 0 31 0 1040,2
7 San Ignacio 07-05-2026 01:30 5,8 87 0 0 31 0 1040,1
6 San Ignacio 07-05-2026 01:15 6,5 87 0 0 31 0 1039,8
5 San Ignacio 07-05-2026 01:00 6,8 87 0 0 31 0 1039,9
4 San Ignacio 07-05-2026 00:45 7,4 86 0 0 31 0 1040
3 San Ignacio 07-05-2026 00:30 7,8 86 0 0 31 0 1039,8
2 San Ignacio 07-05-2026 00:15 8,2 86 0 0 31 0 1039,6
1 San Ignacio 07-05-2026 00:00 8,5 86 0 0 31 0 1039,3